Time;durP1;ratioP1;P1;durP2;ratioP2;P2;SDS_P1;SDS_P2;PMS_P1;PMS_P2;Temp;Humidity;BMP_temperature;BMP_pressure;BME280_temperature;BME280_humidity;BME280_pressure;Samples;Min_cycle;Max_cycle;Signal;HPM_P1;HPM_P2
2021/06/17 00:01:51;;;;;;;10.43;7.30;;;19.60;90.30;;;;;;5094095;28;20060;-72
2021/06/17 00:04:16;;;;;;;6.72;6.03;;;19.60;90.20;;;;;;5093849;28;20401;-72
2021/06/17 00:06:42;;;;;;;7.28;6.50;;;19.60;90.10;;;;;;5093566;28;20067;-72
2021/06/17 00:09:08;;;;;;;6.95;6.13;;;19.60;90.10;;;;;;5093709;28;20028;-72
2021/06/17 00:11:35;;;;;;;6.53;5.22;;;19.60;90.00;;;;;;5093511;28;20028;-72
2021/06/17 00:14:01;;;;;;;9.35;5.80;;;19.60;89.90;;;;;;5093412;28;20457;-72
2021/06/17 00:16:27;;;;;;;7.30;5.47;;;19.60;89.70;;;;;;5093309;28;20073;-72
2021/06/17 00:18:52;;;;;;;9.40;5.50;;;19.60;89.50;;;;;;5093577;28;20111;-72
2021/06/17 00:21:18;;;;;;;5.28;4.78;;;19.70;89.30;;;;;;5093708;28;20115;-71
2021/06/17 00:23:44;;;;;;;7.70;4.93;;;19.70;89.10;;;;;;5093775;28;20052;-72
2021/06/17 00:26:09;;;;;;;8.05;5.05;;;19.70;89.10;;;;;;5092198;28;20369;-72
2021/06/17 00:28:35;;;;;;;8.93;5.45;;;19.80;89.00;;;;;;5093911;28;20106;-72
2021/06/17 00:31:01;;;;;;;5.38;4.50;;;19.80;88.80;;;;;;5093512;28;20046;-72
2021/06/17 00:33:28;;;;;;;5.65;4.90;;;19.90;88.50;;;;;;5093391;28;20020;-72
2021/06/17 00:35:54;;;;;;;7.18;4.82;;;20.00;88.00;;;;;;5093366;28;20494;-72
2021/06/17 00:38:20;;;;;;;6.13;4.70;;;20.00;87.40;;;;;;5093158;28;20462;-72
2021/06/17 00:40:46;;;;;;;6.00;4.97;;;20.00;87.00;;;;;;5093116;28;20101;-72
2021/06/17 00:43:12;;;;;;;7.28;4.75;;;20.00;86.60;;;;;;5093457;28;20073;-72
2021/06/17 00:45:41;;;;;;;6.13;5.53;;;20.00;86.50;;;;;;5093528;28;20023;-72
2021/06/17 00:48:08;;;;;;;5.95;5.35;;;20.00;86.30;;;;;;5093318;28;20024;-73
2021/06/17 00:50:42;;;;;;;5.55;5.05;;;20.00;86.20;;;;;;5092940;28;20402;-72
2021/06/17 00:53:12;;;;;;;7.05;5.32;;;19.90;86.10;;;;;;5093313;28;20024;-72
2021/06/17 00:55:43;;;;;;;6.97;5.32;;;19.90;86.10;;;;;;5093137;28;20056;-72
2021/06/17 00:58:09;;;;;;;5.28;4.72;;;19.90;86.10;;;;;;5092902;28;20032;-72
2021/06/17 01:00:35;;;;;;;6.60;5.10;;;19.80;86.10;;;;;;5093061;28;20035;-72
2021/06/17 01:03:02;;;;;;;5.53;4.95;;;19.80;86.10;;;;;;5097233;28;20032;-71
2021/06/17 01:05:27;;;;;;;6.15;4.60;;;19.80;86.20;;;;;;5097279;28;20036;-72
2021/06/17 01:08:00;;;;;;;6.07;4.88;;;19.80;86.20;;;;;;5097150;28;20085;-71
2021/06/17 01:10:26;;;;;;;7.35;5.40;;;19.80;86.30;;;;;;5097030;28;20084;-72
2021/06/17 01:13:29;;;;;;;7.35;5.00;;;19.80;86.30;;;;;;5097092;28;20028;-72
2021/06/17 01:16:17;;;;;;;5.90;4.95;;;19.80;86.20;;;;;;5062806;28;20044;-72
2021/06/17 01:18:52;;;;;;;5.45;4.90;;;19.70;86.10;;;;;;5095632;28;20081;-71
2021/06/17 01:21:30;;;;;;;7.57;5.60;;;19.70;86.20;;;;;;5095765;28;20032;-71
2021/06/17 01:24:16;;;;;;;5.93;5.32;;;19.70;86.30;;;;;;5096813;28;20034;-71
2021/06/17 01:27:05;;;;;;;8.32;5.38;;;19.70;86.40;;;;;;5065275;28;20040;-71
2021/06/17 01:29:32;;;;;;;6.15;4.68;;;19.70;86.50;;;;;;5096361;28;20028;-71
2021/06/17 01:31:59;;;;;;;6.80;6.10;;;19.70;86.60;;;;;;5078718;28;20036;-71
2021/06/17 01:34:25;;;;;;;6.95;5.60;;;19.70;86.80;;;;;;5075874;28;20116;-71
2021/06/17 01:37:06;;;;;;;6.97;5.70;;;19.70;87.00;;;;;;5076355;28;20028;-71
2021/06/17 01:39:33;;;;;;;6.82;5.32;;;19.60;87.10;;;;;;5091837;28;20029;-71
2021/06/17 01:42:01;;;;;;;10.63;6.07;;;19.70;87.20;;;;;;5093298;28;20115;-71
2021/06/17 01:44:27;;;;;;;6.22;5.53;;;19.70;87.30;;;;;;5096398;28;20020;-71
2021/06/17 01:46:54;;;;;;;6.82;6.13;;;19.70;87.40;;;;;;5096103;28;20081;-71
2021/06/17 01:49:20;;;;;;;7.88;5.43;;;19.60;87.40;;;;;;5096349;28;20040;-71
2021/06/17 01:51:48;;;;;;;6.50;5.85;;;19.60;87.50;;;;;;5096426;28;20059;-71
2021/06/17 01:54:21;;;;;;;6.65;5.50;;;19.70;87.60;;;;;;5096212;28;20020;-72
2021/06/17 01:56:50;;;;;;;6.57;5.87;;;19.60;88.20;;;;;;5096379;28;20035;-71
2021/06/17 01:59:17;;;;;;;8.52;5.90;;;19.70;87.50;;;;;;5096006;28;20031;-71
2021/06/17 02:01:45;;;;;;;8.00;6.32;;;19.70;87.40;;;;;;5095983;28;20085;-71
2021/06/17 02:04:11;;;;;;;7.80;5.88;;;19.70;87.50;;;;;;5096086;28;20024;-71
2021/06/17 02:06:40;;;;;;;12.43;5.97;;;19.70;87.40;;;;;;5096327;28;20120;-72
2021/06/17 02:09:07;;;;;;;6.63;5.57;;;19.70;87.40;;;;;;5096018;28;20026;-72
2021/06/17 02:11:33;;;;;;;7.20;6.18;;;19.70;87.40;;;;;;5095374;28;20032;-72
2021/06/17 02:13:59;;;;;;;6.93;5.95;;;19.80;87.30;;;;;;5112462;28;20028;-72
2021/06/17 02:16:27;;;;;;;7.57;6.13;;;19.80;87.30;;;;;;5095575;28;20030;-71
2021/06/17 02:18:55;;;;;;;6.25;5.43;;;19.80;87.30;;;;;;5095904;28;20020;-71
2021/06/17 02:21:21;;;;;;;7.38;6.22;;;19.80;87.20;;;;;;5095374;28;20032;-71
2021/06/17 02:23:56;;;;;;;7.45;5.93;;;19.80;87.00;;;;;;5095869;28;20033;-71
2021/06/17 02:26:24;;;;;;;7.00;6.07;;;19.90;87.00;;;;;;5095448;28;20404;-71
2021/06/17 02:28:51;;;;;;;9.43;6.18;;;19.90;87.00;;;;;;5095655;28;20085;-71
2021/06/17 02:31:21;;;;;;;8.25;6.50;;;20.00;87.00;;;;;;5095495;28;20028;-72
2021/06/17 02:33:49;;;;;;;7.63;5.93;;;20.00;86.80;;;;;;5095452;28;20024;-71
2021/06/17 02:36:18;;;;;;;9.23;6.15;;;20.10;86.60;;;;;;5095516;28;20035;-72
2021/06/17 02:38:46;;;;;;;6.20;5.60;;;20.10;86.50;;;;;;5094963;28;20060;-72
2021/06/17 02:41:14;;;;;;;7.70;5.78;;;20.10;86.30;;;;;;5095401;28;20032;-72
2021/06/17 02:43:45;;;;;;;7.38;5.93;;;20.10;86.20;;;;;;5095336;28;20028;-72
2021/06/17 02:46:11;;;;;;;7.07;5.70;;;20.20;86.20;;;;;;5095318;28;20027;-72
2021/06/17 02:48:36;;;;;;;7.10;5.25;;;20.20;86.10;;;;;;5094780;28;20462;-72
2021/06/17 02:51:03;;;;;;;6.15;5.55;;;20.20;85.90;;;;;;5095801;28;20032;-71
2021/06/17 02:53:29;;;;;;;6.00;5.40;;;20.30;85.80;;;;;;5094971;28;20039;-71
2021/06/17 02:55:57;;;;;;;9.02;5.60;;;20.30;85.70;;;;;;5095878;28;20020;-71
2021/06/17 02:58:53;;;;;;;10.10;5.40;;;20.40;85.50;;;;;;5094975;28;20024;-72
2021/06/17 03:01:19;;;;;;;11.07;6.63;;;20.40;85.40;;;;;;5094958;28;20047;-72
2021/06/17 03:03:52;;;;;;;7.05;5.50;;;20.50;85.20;;;;;;5094961;28;20029;-72
2021/06/17 03:06:39;;;;;;;6.28;5.68;;;20.50;85.00;;;;;;5094548;28;20066;-72
2021/06/17 03:09:12;;;;;;;5.70;5.20;;;20.60;84.70;;;;;;5094903;28;20370;-72
2021/06/17 03:11:41;;;;;;;7.50;5.40;;;20.70;85.20;;;;;;5094953;28;20505;-72
2021/06/17 03:14:18;;;;;;;7.50;5.90;;;20.80;84.30;;;;;;5094465;28;20030;-72
2021/06/17 03:16:47;;;;;;;7.00;5.55;;;20.80;84.10;;;;;;5093252;28;20431;-72
2021/06/17 03:19:15;;;;;;;6.00;5.15;;;20.90;83.80;;;;;;5094656;28;20028;-72
2021/06/17 03:21:46;;;;;;;7.50;5.60;;;20.90;83.40;;;;;;5075984;28;20076;-72
2021/06/17 03:24:13;;;;;;;9.02;5.40;;;21.00;83.20;;;;;;5070004;28;20419;-72
2021/06/17 03:26:42;;;;;;;9.00;5.57;;;21.10;82.90;;;;;;5063844;28;20086;-72
2021/06/17 03:29:10;;;;;;;7.75;5.68;;;21.10;82.60;;;;;;5062323;28;20013;-72
2021/06/17 03:31:38;;;;;;;6.13;5.03;;;21.10;82.50;;;;;;5061952;28;20035;-73
2021/06/17 03:34:06;;;;;;;8.30;5.65;;;21.20;82.50;;;;;;5061635;28;20025;-72
2021/06/17 03:36:32;;;;;;;6.25;5.10;;;21.20;82.40;;;;;;5062510;28;20352;-72
2021/06/17 03:38:59;;;;;;;6.00;5.35;;;21.30;82.30;;;;;;5053839;28;20039;-72
2021/06/17 03:41:26;;;;;;;7.43;5.80;;;21.30;82.20;;;;;;5053572;28;20105;-73
2021/06/17 03:43:54;;;;;;;6.97;6.15;;;21.30;82.00;;;;;;5065498;28;20463;-72
2021/06/17 03:46:21;;;;;;;6.35;5.75;;;21.30;81.60;;;;;;5073956;28;20028;-73
2021/06/17 03:48:48;;;;;;;8.65;5.75;;;21.40;81.60;;;;;;5072460;28;20036;-73
2021/06/17 03:51:15;;;;;;;6.47;5.60;;;21.40;81.50;;;;;;5073929;28;20086;-72
2021/06/17 03:53:44;;;;;;;6.68;5.70;;;21.50;81.40;;;;;;5073531;28;20417;-72
2021/06/17 03:56:13;;;;;;;10.07;5.57;;;21.50;81.10;;;;;;5073738;28;20025;-72
2021/06/17 03:58:41;;;;;;;8.90;5.88;;;21.50;80.80;;;;;;5073603;28;20032;-72
2021/06/17 04:01:08;;;;;;;7.13;5.78;;;21.50;80.70;;;;;;5073619;28;20034;-72
2021/06/17 04:03:35;;;;;;;8.95;5.53;;;21.60;80.70;;;;;;5073534;28;20386;-74
2021/06/17 04:06:01;;;;;;;6.70;5.80;;;21.60;80.40;;;;;;5073985;28;20028;-72
2021/06/17 04:08:31;;;;;;;8.77;5.57;;;21.70;80.30;;;;;;5073479;28;20033;-73
2021/06/17 04:11:04;;;;;;;6.18;5.57;;;21.70;80.00;;;;;;5073560;28;20114;-71
2021/06/17 04:13:36;;;;;;;5.93;5.38;;;21.80;79.80;;;;;;5073195;28;20024;-73
2021/06/17 04:16:03;;;;;;;8.38;5.90;;;21.80;79.60;;;;;;5073404;28;20067;-72
2021/06/17 04:18:31;;;;;;;5.93;5.30;;;21.90;79.50;;;;;;5072188;28;20044;-71
2021/06/17 04:20:58;;;;;;;9.25;5.55;;;21.90;79.30;;;;;;5072228;28;20033;-72
2021/06/17 04:23:25;;;;;;;6.10;5.25;;;22.00;79.10;;;;;;5073462;28;20025;-72
2021/06/17 04:25:53;;;;;;;7.05;5.68;;;22.00;78.80;;;;;;5073411;28;20040;-73
2021/06/17 04:28:20;;;;;;;6.10;5.50;;;22.10;78.60;;;;;;5073363;28;20064;-72
2021/06/17 04:30:47;;;;;;;7.82;5.38;;;22.20;79.00;;;;;;5073240;28;20056;-72
2021/06/17 04:33:16;;;;;;;5.75;5.13;;;22.30;78.30;;;;;;5072050;28;20362;-73
2021/06/17 04:35:45;;;;;;;7.07;5.00;;;22.40;78.10;;;;;;5075093;28;20021;-73
2021/06/17 04:38:13;;;;;;;5.93;5.05;;;22.50;77.80;;;;;;5077383;28;20056;-73
2021/06/17 04:40:40;;;;;;;5.47;4.97;;;22.50;77.40;;;;;;5077205;28;20036;-73
2021/06/17 04:43:05;;;;;;;5.63;5.10;;;22.60;77.20;;;;;;5077368;28;20025;-73
2021/06/17 04:45:32;;;;;;;5.65;4.97;;;22.70;77.10;;;;;;5077214;28;20032;-72
2021/06/17 04:48:01;;;;;;;6.75;4.85;;;22.80;76.80;;;;;;5077186;28;20029;-72
2021/06/17 04:50:27;;;;;;;5.15;4.65;;;22.90;76.40;;;;;;5077000;28;20039;-74
2021/06/17 04:52:56;;;;;;;5.78;5.13;;;23.00;76.00;;;;;;5077152;28;20055;-73
2021/06/17 04:55:22;;;;;;;6.28;5.13;;;23.10;75.60;;;;;;5077146;28;20025;-74
2021/06/17 04:57:47;;;;;;;6.07;5.00;;;23.20;75.30;;;;;;5077179;28;20032;-71
2021/06/17 05:00:14;;;;;;;6.93;4.60;;;23.30;74.90;;;;;;5076932;28;20417;-71
2021/06/17 05:02:40;;;;;;;5.43;4.45;;;23.40;74.50;;;;;;5076914;28;20033;-72
2021/06/17 05:05:08;;;;;;;10.82;5.00;;;23.50;74.20;;;;;;5077187;28;20074;-72
2021/06/17 05:12:46;;;;;;;5.32;4.60;;;23.80;73.60;;;;;;5076356;28;20055;-72
2021/06/17 05:15:11;;;;;;;4.93;4.50;;;24.00;73.30;;;;;;5076785;28;20025;-72
2021/06/17 05:17:37;;;;;;;4.78;4.38;;;24.10;72.90;;;;;;5075736;28;20017;-71
2021/06/17 05:20:06;;;;;;;5.47;4.53;;;24.20;72.40;;;;;;5076533;28;20033;-72
2021/06/17 05:22:34;;;;;;;6.25;4.40;;;24.30;71.90;;;;;;5076253;28;20086;-73
2021/06/17 05:25:00;;;;;;;5.00;4.50;;;24.50;71.70;;;;;;5076015;28;20032;-72
2021/06/17 05:27:26;;;;;;;5.18;4.55;;;24.60;71.30;;;;;;5075224;28;20471;-73
2021/06/17 05:29:51;;;;;;;4.70;4.30;;;24.70;70.90;;;;;;5064147;28;20074;-73
2021/06/17 05:32:18;;;;;;;5.75;4.28;;;24.80;70.60;;;;;;5063787;28;20083;-73
2021/06/17 05:34:45;;;;;;;7.65;4.47;;;24.90;70.10;;;;;;5062821;28;20440;-74
2021/06/17 05:37:11;;;;;;;7.18;4.28;;;24.90;69.70;;;;;;5064105;28;20103;-73
2021/06/17 05:39:37;;;;;;;5.97;4.68;;;24.90;69.70;;;;;;5065096;28;20407;-73
2021/06/17 05:42:04;;;;;;;4.63;4.10;;;25.00;69.60;;;;;;5063201;28;20090;-74
2021/06/17 05:44:30;;;;;;;6.03;4.20;;;25.00;69.70;;;;;;5054525;28;20478;-74
2021/06/17 05:46:55;;;;;;;4.80;4.40;;;25.10;69.60;;;;;;5055360;28;20025;-71
2021/06/17 05:49:24;;;;;;;5.03;4.22;;;25.10;69.30;;;;;;5055769;28;20032;-72
2021/06/17 05:51:50;;;;;;;5.28;4.30;;;25.20;69.10;;;;;;5056149;28;20028;-72
2021/06/17 05:54:16;;;;;;;6.20;4.20;;;25.20;68.70;;;;;;5056040;28;20111;-72
2021/06/17 05:56:42;;;;;;;6.55;4.63;;;25.30;68.70;;;;;;5055891;28;20067;-72
2021/06/17 05:59:08;;;;;;;4.50;4.10;;;25.30;68.50;;;;;;5055931;28;20028;-74
2021/06/17 06:01:34;;;;;;;5.38;4.05;;;25.30;68.20;;;;;;5051621;28;20059;-74
2021/06/17 06:03:59;;;;;;;7.78;4.03;;;25.40;68.00;;;;;;5077442;28;20028;-77
2021/06/17 06:06:25;;;;;;;7.63;4.38;;;25.40;67.70;;;;;;5075364;28;20024;-74
2021/06/17 06:08:51;;;;;;;6.13;3.72;;;25.50;67.80;;;;;;5075845;28;20036;-72
2021/06/17 06:11:16;;;;;;;5.90;4.35;;;25.60;67.80;;;;;;5075871;28;20498;-74
2021/06/17 06:13:42;;;;;;;7.13;4.75;;;25.60;67.50;;;;;;5075301;28;20038;-73
2021/06/17 06:16:09;;;;;;;5.95;4.90;;;25.70;67.50;;;;;;5080265;28;20031;-72
2021/06/17 06:18:35;;;;;;;5.20;4.70;;;25.80;67.20;;;;;;5089387;28;20021;-73
2021/06/17 06:21:01;;;;;;;8.85;4.40;;;26.00;67.20;;;;;;5095227;28;20127;-72
2021/06/17 06:23:29;;;;;;;8.32;4.25;;;26.00;66.80;;;;;;5095360;28;20036;-72
2021/06/17 06:25:57;;;;;;;4.50;4.07;;;26.10;66.50;;;;;;5095585;28;20103;-73
2021/06/17 06:28:24;;;;;;;4.68;3.95;;;26.10;66.50;;;;;;5095432;28;20020;-73
2021/06/17 06:30:51;;;;;;;7.85;4.82;;;26.10;66.70;;;;;;5095520;28;20028;-72
2021/06/17 06:33:21;;;;;;;5.40;4.47;;;26.10;66.30;;;;;;5095602;28;20024;-73
2021/06/17 06:35:48;;;;;;;7.53;3.88;;;26.10;66.00;;;;;;5095177;28;20081;-73
2021/06/17 06:38:14;;;;;;;10.38;4.38;;;26.20;66.10;;;;;;5095367;28;20103;-75
2021/06/17 06:40:40;;;;;;;8.10;3.95;;;26.20;66.80;;;;;;5095008;28;20119;-73
2021/06/17 06:43:08;;;;;;;5.13;4.18;;;26.20;66.20;;;;;;5095050;28;20024;-74
2021/06/17 06:45:34;;;;;;;7.28;4.03;;;26.20;66.20;;;;;;5095066;28;20032;-73
2021/06/17 06:48:00;;;;;;;7.28;3.90;;;26.30;66.30;;;;;;5079267;28;20399;-71
2021/06/17 06:50:26;;;;;;;6.70;4.28;;;26.30;66.30;;;;;;5065197;28;20036;-72
2021/06/17 06:52:52;;;;;;;7.85;4.13;;;26.30;66.40;;;;;;5063528;28;20095;-72
2021/06/17 06:55:18;;;;;;;6.80;4.10;;;26.30;66.50;;;;;;5064345;28;20050;-76
2021/06/17 06:57:45;;;;;;;4.75;3.88;;;26.30;66.60;;;;;;5064082;28;20055;-73
2021/06/17 07:00:13;;;;;;;5.22;3.55;;;26.40;66.60;;;;;;5061642;28;20453;-73
2021/06/17 07:02:39;;;;;;;4.25;3.85;;;26.50;66.60;;;;;;5062598;28;20055;-74
2021/06/17 07:05:06;;;;;;;5.93;3.80;;;26.60;66.70;;;;;;5063928;28;20024;-74
2021/06/17 07:07:32;;;;;;;4.30;3.90;;;26.60;66.60;;;;;;5069066;28;20048;-73
2021/06/17 07:09:58;;;;;;;3.97;3.67;;;26.60;66.50;;;;;;5065880;28;20040;-76
2021/06/17 07:12:24;;;;;;;5.32;4.22;;;26.60;66.00;;;;;;5061547;28;20108;-73
2021/06/17 07:14:50;;;;;;;3.60;3.30;;;26.70;65.90;;;;;;5063599;28;20025;-73
2021/06/17 07:17:16;;;;;;;4.80;3.72;;;26.70;65.90;;;;;;5063031;28;20025;-73
2021/06/17 07:19:42;;;;;;;4.43;4.00;;;26.80;66.10;;;;;;5061278;28;20526;-74
2021/06/17 07:22:09;;;;;;;4.30;3.90;;;26.90;66.00;;;;;;5060268;28;20561;-75
2021/06/17 07:24:35;;;;;;;5.20;3.90;;;26.90;65.60;;;;;;5064167;28;20021;-71
2021/06/17 07:27:02;;;;;;;4.25;3.63;;;27.00;65.60;;;;;;5061629;28;20040;-72
2021/06/17 07:29:29;;;;;;;9.55;4.22;;;27.00;65.60;;;;;;5061534;28;20079;-75
2021/06/17 07:31:55;;;;;;;10.80;4.00;;;27.10;65.70;;;;;;5063428;28;20047;-74
2021/06/17 07:34:21;;;;;;;7.40;4.97;;;27.10;65.60;;;;;;5061236;28;20450;-74
2021/06/17 07:36:48;;;;;;;4.45;3.47;;;27.20;65.40;;;;;;5061567;28;20036;-73
2021/06/17 07:39:15;;;;;;;4.88;3.70;;;27.20;65.10;;;;;;5062302;28;20076;-73
2021/06/17 07:41:41;;;;;;;12.18;3.95;;;27.20;64.80;;;;;;5063319;28;20084;-73
2021/06/17 07:44:09;;;;;;;6.38;3.80;;;27.30;64.70;;;;;;5073818;28;20449;-73
2021/06/17 07:46:36;;;;;;;5.13;3.92;;;27.30;64.30;;;;;;5072380;28;20386;-73
2021/06/17 07:49:02;;;;;;;5.78;3.33;;;27.30;64.10;;;;;;5073406;28;20032;-73
2021/06/17 07:51:30;;;;;;;4.45;3.38;;;27.40;64.20;;;;;;5072464;28;20134;-73
2021/06/17 07:54:00;;;;;;;5.18;3.75;;;27.50;64.20;;;;;;5073707;28;20056;-73
2021/06/17 07:56:27;;;;;;;9.80;4.05;;;27.50;63.90;;;;;;5073531;28;20421;-73
2021/06/17 07:58:53;;;;;;;4.60;3.40;;;27.50;63.90;;;;;;5073823;28;20043;-73
2021/06/17 08:01:18;;;;;;;9.02;4.78;;;27.60;63.80;;;;;;5073351;28;20490;-72
2021/06/17 08:03:44;;;;;;;4.70;4.18;;;27.60;63.50;;;;;;5073445;28;20039;-73
2021/06/17 08:06:10;;;;;;;5.38;3.55;;;27.60;63.10;;;;;;5073209;28;20052;-74
2021/06/17 08:08:36;;;;;;;6.93;4.53;;;27.70;62.70;;;;;;5071535;28;20039;-72
2021/06/17 08:11:02;;;;;;;5.10;3.90;;;27.80;62.30;;;;;;5062791;28;20060;-73
2021/06/17 08:13:27;;;;;;;7.82;4.30;;;27.80;62.10;;;;;;5060119;28;20035;-74
2021/06/17 08:15:53;;;;;;;5.82;3.90;;;27.90;62.10;;;;;;5062067;28;20025;-72
2021/06/17 08:18:19;;;;;;;6.57;3.88;;;28.00;62.50;;;;;;5062457;28;20558;-75
2021/06/17 08:20:45;;;;;;;5.32;4.07;;;28.20;62.60;;;;;;5059251;28;20470;-72
2021/06/17 08:23:11;;;;;;;6.88;5.13;;;28.30;62.10;;;;;;5062305;28;20024;-73
2021/06/17 08:25:37;;;;;;;5.43;4.15;;;28.50;61.70;;;;;;5061998;28;20025;-74
2021/06/17 08:28:06;;;;;;;6.43;3.80;;;28.60;61.30;;;;;;5061081;28;20032;-72
2021/06/17 08:30:34;;;;;;;4.15;3.83;;;28.70;61.10;;;;;;5066232;28;20139;-72
2021/06/17 08:33:00;;;;;;;5.93;4.10;;;28.80;60.90;;;;;;5063449;28;20043;-72
2021/06/17 08:35:26;;;;;;;5.10;4.40;;;28.90;60.90;;;;;;5060747;28;20057;-72
2021/06/17 08:37:54;;;;;;;4.70;3.97;;;29.10;60.80;;;;;;5061695;28;20016;-74
2021/06/17 08:40:22;;;;;;;6.93;4.00;;;29.30;60.70;;;;;;5068285;28;20097;-73
2021/06/17 08:42:49;;;;;;;4.40;4.00;;;29.60;60.30;;;;;;5070104;28;20046;-73
2021/06/17 08:45:15;;;;;;;8.10;4.40;;;29.80;59.70;;;;;;5059717;28;20055;-72
2021/06/17 08:47:41;;;;;;;9.65;4.85;;;30.00;59.30;;;;;;5052660;28;20043;-72
2021/06/17 08:50:09;;;;;;;6.25;3.90;;;30.30;59.30;;;;;;5051618;28;20049;-73
2021/06/17 08:52:39;;;;;;;7.13;4.40;;;30.50;59.00;;;;;;5051737;28;20045;-74
2021/06/17 08:55:14;;;;;;;8.23;4.55;;;30.70;58.80;;;;;;5051775;28;20037;-72
2021/06/17 08:57:40;;;;;;;6.15;4.47;;;30.90;58.60;;;;;;5052868;28;20112;-72
2021/06/17 09:00:21;;;;;;;8.15;4.82;;;31.10;57.70;;;;;;5052518;28;20360;-73
2021/06/17 09:02:59;;;;;;;6.55;4.15;;;31.40;57.00;;;;;;5077766;28;20024;-73
2021/06/17 09:05:26;;;;;;;9.23;4.20;;;31.50;56.60;;;;;;5091556;28;20024;-73
2021/06/17 09:07:53;;;;;;;4.18;3.80;;;31.80;56.40;;;;;;5092343;28;20039;-74
2021/06/17 09:10:20;;;;;;;5.03;4.28;;;32.00;56.10;;;;;;5106593;28;20474;-71
2021/06/17 09:12:49;;;;;;;4.30;3.90;;;32.20;55.70;;;;;;5080626;28;20078;-73
2021/06/17 09:15:26;;;;;;;7.13;4.15;;;32.50;55.30;;;;;;5072533;28;20032;-72
2021/06/17 09:18:10;;;;;;;9.60;4.40;;;32.90;55.10;;;;;;5072352;28;20021;-74
2021/06/17 09:20:36;;;;;;;7.10;4.25;;;33.20;54.30;;;;;;5071531;28;20037;-72
2021/06/17 09:23:25;;;;;;;5.10;4.18;;;33.50;53.50;;;;;;5074460;28;20024;-74
2021/06/17 09:26:01;;;;;;;5.30;4.15;;;33.90;52.60;;;;;;5075507;28;20107;-73
2021/06/17 09:28:43;;;;;;;6.38;4.57;;;34.20;52.10;;;;;;5075538;28;20028;-72
2021/06/17 09:31:16;;;;;;;7.13;4.50;;;34.40;51.90;;;;;;5076043;28;20119;-73
2021/06/17 09:33:43;;;;;;;6.30;4.57;;;34.80;52.00;;;;;;5071319;28;20080;-73
2021/06/17 09:36:09;;;;;;;5.68;4.03;;;35.20;51.40;;;;;;5076276;28;20041;-73
2021/06/17 09:38:53;;;;;;;7.07;4.65;;;35.60;50.20;;;;;;5095427;28;20040;-73
2021/06/17 09:41:37;;;;;;;6.47;4.45;;;36.00;49.40;;;;;;5094015;28;20031;-73
2021/06/17 09:44:06;;;;;;;5.65;4.30;;;36.30;48.90;;;;;;5076098;28;20039;-73
2021/06/17 09:46:32;;;;;;;6.85;4.30;;;36.70;48.80;;;;;;5076047;28;20127;-73
2021/06/17 09:49:09;;;;;;;12.80;5.43;;;37.00;48.50;;;;;;5075442;28;20084;-73
2021/06/17 09:51:42;;;;;;;4.43;3.95;;;37.40;47.90;;;;;;5076074;28;20028;-73
2021/06/17 09:54:21;;;;;;;5.43;4.40;;;37.90;47.80;;;;;;5075927;28;20027;-73
2021/06/17 09:57:11;;;;;;;11.75;5.00;;;38.30;47.00;;;;;;5090776;28;20115;-74
2021/06/17 09:59:49;;;;;;;4.80;3.90;;;38.70;46.60;;;;;;5054773;28;20029;-73
2021/06/17 10:02:34;;;;;;;11.23;4.55;;;39.20;45.90;;;;;;5055658;28;20028;-74
2021/06/17 10:05:21;;;;;;;8.32;4.72;;;39.70;45.20;;;;;;5055614;28;20025;-73
2021/06/17 10:07:48;;;;;;;8.60;4.85;;;40.20;44.50;;;;;;5055695;28;20069;-72
2021/06/17 10:10:17;;;;;;;8.43;4.72;;;40.50;44.10;;;;;;5054246;28;20029;-73
2021/06/17 10:12:44;;;;;;;7.55;4.30;;;41.00;43.30;;;;;;5055414;28;20025;-74
2021/06/17 10:15:11;;;;;;;9.90;4.38;;;41.10;42.60;;;;;;5053898;28;20032;-73
2021/06/17 10:17:37;;;;;;;5.72;4.20;;;41.30;42.10;;;;;;5054511;28;20390;-72
2021/06/17 10:20:11;;;;;;;7.75;4.22;;;41.20;41.90;;;;;;5053393;28;20206;-75
2021/06/17 10:22:37;;;;;;;4.18;3.85;;;40.80;41.90;;;;;;5057566;28;20032;-74
2021/06/17 10:25:05;;;;;;;8.57;4.60;;;40.60;42.10;;;;;;5089388;28;20398;-75
2021/06/17 10:27:40;;;;;;;6.53;3.95;;;40.80;42.20;;;;;;5092247;28;20093;-73
2021/06/17 10:30:07;;;;;;;6.93;4.60;;;41.30;42.10;;;;;;5074670;28;20470;-74
2021/06/17 10:32:43;;;;;;;4.88;4.38;;;41.90;41.50;;;;;;5074338;28;20021;-76
2021/06/17 10:35:10;;;;;;;6.00;4.47;;;42.40;40.80;;;;;;5074466;28;20041;-73
2021/06/17 10:38:08;;;;;;;7.07;4.38;;;42.60;40.50;;;;;;5082206;28;20024;-75
2021/06/17 10:40:42;;;;;;;9.40;4.20;;;43.00;40.50;;;;;;5082503;28;20123;-73
2021/06/17 10:43:19;;;;;;;9.52;4.22;;;43.20;40.50;;;;;;5095032;28;20024;-74
2021/06/17 10:45:48;;;;;;;8.10;4.07;;;43.60;39.80;;;;;;5095021;28;20024;-75
2021/06/17 10:48:21;;;;;;;9.32;4.40;;;43.90;39.30;;;;;;5095059;28;20096;-74
2021/06/17 10:50:53;;;;;;;5.78;4.10;;;44.10;39.10;;;;;;5066914;28;20036;-74
2021/06/17 10:53:28;;;;;;;5.63;4.00;;;44.20;38.50;;;;;;5064443;28;20033;-77
2021/06/17 10:56:05;;;;;;;4.95;4.35;;;44.30;38.50;;;;;;5063605;28;20029;-75
2021/06/17 10:58:43;;;;;;;6.45;4.20;;;43.90;38.40;;;;;;5064764;28;20028;-75
2021/06/17 11:01:32;;;;;;;4.47;4.07;;;43.50;38.90;;;;;;5064194;28;20486;-76
2021/06/17 11:09:46;;;;;;;9.80;4.55;;;43.50;38.80;;;;;;5069276;28;20020;-75
2021/06/17 11:12:18;;;;;;;4.65;3.95;;;43.40;38.90;;;;;;5067705;28;20025;-74
2021/06/17 11:14:45;;;;;;;4.93;4.40;;;43.50;38.80;;;;;;5061861;28;20021;-73
2021/06/17 11:17:36;;;;;;;5.03;4.47;;;43.40;38.80;;;;;;5063162;28;20025;-75
2021/06/17 11:20:12;;;;;;;17.67;5.07;;;43.20;38.90;;;;;;5063954;28;20047;-75
2021/06/17 11:22:49;;;;;;;4.65;4.25;;;43.30;39.10;;;;;;5063425;28;20103;-75
2021/06/17 11:25:18;;;;;;;6.82;4.10;;;43.50;38.90;;;;;;5062966;28;20481;-74
2021/06/17 11:27:57;;;;;;;4.55;4.07;;;43.60;38.70;;;;;;5071603;28;20077;-75
2021/06/17 11:30:38;;;;;;;4.80;3.85;;;43.40;38.50;;;;;;5093971;28;20416;-73
2021/06/17 11:33:19;;;;;;;7.55;4.10;;;43.50;38.70;;;;;;5053939;28;20120;-73
2021/06/17 11:36:00;;;;;;;11.57;4.07;;;44.00;38.40;;;;;;5076552;28;20028;-74
2021/06/17 11:38:30;;;;;;;4.38;4.03;;;44.00;37.90;;;;;;5094275;28;20035;-74
2021/06/17 11:40:56;;;;;;;4.47;3.35;;;43.90;37.70;;;;;;5092735;28;20024;-73
2021/06/17 11:43:27;;;;;;;5.75;4.13;;;43.80;37.70;;;;;;5093765;28;20020;-73
2021/06/17 11:45:53;;;;;;;7.95;4.30;;;43.60;37.70;;;;;;5092097;28;20502;-75
2021/06/17 11:48:21;;;;;;;7.18;3.97;;;43.30;38.30;;;;;;5081415;28;20111;-76
2021/06/17 11:50:48;;;;;;;5.30;4.15;;;42.60;38.50;;;;;;5093746;28;20047;-83
2021/06/17 11:53:19;;;;;;;4.93;3.90;;;42.30;38.60;;;;;;5089558;28;20024;-84
2021/06/17 11:55:54;;;;;;;6.43;3.70;;;42.20;38.50;;;;;;5077004;28;20028;-84
2021/06/17 11:58:21;;;;;;;4.82;3.60;;;42.10;38.00;;;;;;5073667;28;20020;-84
2021/06/17 12:00:47;;;;;;;11.85;3.90;;;42.20;37.80;;;;;;5072535;28;20074;-87
2021/06/17 12:03:22;;;;;;;4.25;3.85;;;42.20;37.80;;;;;;5057696;28;20532;-87
2021/06/17 12:05:48;;;;;;;4.43;4.00;;;42.60;38.20;;;;;;5053488;28;20029;-86
2021/06/17 12:08:14;;;;;;;3.60;3.30;;;43.10;38.30;;;;;;5054067;28;20424;-86
2021/06/17 12:14:05;;;;;;;4.10;3.63;;;44.00;37.70;;;;;;5063508;28;20034;-86
2021/06/17 12:16:31;;;;;;;4.00;3.70;;;44.60;37.00;;;;;;5074449;28;20519;-92
2021/06/17 12:18:57;;;;;;;5.00;3.72;;;45.10;36.50;;;;;;5089361;28;20058;-78
2021/06/17 12:21:29;;;;;;;3.90;3.50;;;45.60;36.40;;;;;;5073539;28;20086;-78
2021/06/17 12:23:56;;;;;;;5.25;3.35;;;46.10;36.20;;;;;;5080327;28;20472;-85
2021/06/17 12:26:28;;;;;;;26.77;5.40;;;46.50;35.90;;;;;;5082099;28;20087;-87
2021/06/17 12:29:09;;;;;;;4.65;3.80;;;46.50;35.50;;;;;;5084737;28;20363;-85
2021/06/17 12:31:38;;;;;;;4.28;3.50;;;46.40;35.40;;;;;;5080568;28;20115;-85
2021/06/17 12:34:22;;;;;;;5.97;4.00;;;46.40;35.20;;;;;;5075791;28;20479;-86
2021/06/17 12:37:06;;;;;;;7.93;3.67;;;46.40;35.10;;;;;;5076304;28;20434;-85
2021/06/17 12:39:32;;;;;;;11.35;4.65;;;46.40;35.10;;;;;;5091103;28;20055;-86
2021/06/17 12:41:58;;;;;;;12.35;6.38;;;46.10;35.40;;;;;;5084227;28;20071;-85
2021/06/17 12:44:41;;;;;;;10.50;4.85;;;45.70;35.40;;;;;;5067587;28;20079;-85
2021/06/17 12:52:34;;;;;;;15.05;8.50;;;43.30;36.90;;;;;;5062422;28;20111;-86
2021/06/17 12:55:01;;;;;;;5.95;4.80;;;42.30;37.60;;;;;;5059396;28;20047;-86
2021/06/17 12:57:28;;;;;;;6.13;4.93;;;41.90;38.10;;;;;;5066205;28;20024;-86
2021/06/17 12:59:54;;;;;;;6.85;4.82;;;41.40;38.50;;;;;;5079244;28;20021;-86
2021/06/17 13:02:22;;;;;;;6.57;3.88;;;41.10;38.80;;;;;;5080324;28;20039;-86
2021/06/17 13:05:06;;;;;;;9.32;4.45;;;40.50;38.90;;;;;;5068554;28;20024;-85
2021/06/17 13:07:33;;;;;;;4.55;3.90;;;40.20;39.30;;;;;;5067543;28;20024;-85
2021/06/17 13:10:09;;;;;;;7.97;4.00;;;40.20;39.50;;;;;;5064318;28;20033;-85
2021/06/17 13:12:35;;;;;;;5.97;4.35;;;39.90;39.70;;;;;;5068489;28;20514;-85
2021/06/17 13:15:09;;;;;;;5.55;4.10;;;39.60;40.20;;;;;;5077218;28;20052;-85
2021/06/17 13:17:43;;;;;;;5.95;4.05;;;39.20;40.50;;;;;;5079703;28;20086;-84